createdAt,value
2023-01-29T00:00:33.832Z,69.31
2023-01-29T00:03:00.401Z,69.75
2023-01-29T00:05:28.541Z,69.60
2023-01-29T00:07:56.401Z,68.61
2023-01-29T00:10:24.424Z,68.58
2023-01-29T00:12:51.634Z,68.78
2023-01-29T00:15:18.480Z,68.88
2023-01-29T00:17:45.118Z,68.23
2023-01-29T00:20:12.011Z,67.99
2023-01-29T00:22:38.548Z,67.92
2023-01-29T00:25:05.446Z,68.27
2023-01-29T00:27:33.020Z,68.56
2023-01-29T00:30:09.175Z,68.94
2023-01-29T00:32:36.124Z,68.61
2023-01-29T00:35:02.936Z,68.60
2023-01-29T00:37:29.628Z,68.56
2023-01-29T00:39:56.543Z,68.51
2023-01-29T00:42:41.850Z,68.29
2023-01-29T00:45:11.550Z,68.55
2023-01-29T00:47:38.039Z,68.06
2023-01-29T00:50:09.186Z,68.38
2023-01-29T00:52:40.913Z,68.14
2023-01-29T00:55:08.449Z,68.00
2023-01-29T00:57:35.796Z,68.26
2023-01-29T01:00:03.780Z,67.97
2023-01-29T01:02:49.349Z,67.12
2023-01-29T01:05:20.255Z,67.39
2023-01-29T01:07:48.769Z,67.51
2023-01-29T01:10:20.855Z,67.34
2023-01-29T01:12:48.795Z,67.89
2023-01-29T01:15:15.316Z,67.46
2023-01-29T01:17:41.819Z,67.26
2023-01-29T01:20:09.307Z,67.00
2023-01-29T01:22:35.923Z,67.09
2023-01-29T01:25:02.422Z,67.00
2023-01-29T01:27:29.057Z,67.00
2023-01-29T01:29:55.589Z,66.49
2023-01-29T01:32:22.418Z,66.32
2023-01-29T01:34:48.910Z,66.61
2023-01-29T01:37:15.546Z,66.60
2023-01-29T01:39:42.014Z,66.53
2023-01-29T01:42:14.769Z,66.87
2023-01-29T01:45:04.384Z,67.02
2023-01-29T01:47:35.840Z,66.72
2023-01-29T01:50:15.359Z,66.98
2023-01-29T01:52:45.489Z,67.09
2023-01-29T01:55:13.880Z,67.24
2023-01-29T01:57:42.495Z,67.07
2023-01-29T02:00:12.818Z,67.05
2023-01-29T02:03:02.337Z,66.83
2023-01-29T02:05:51.754Z,67.09
2023-01-29T02:08:44.265Z,67.31
2023-01-29T02:11:10.726Z,67.71
2023-01-29T02:13:37.215Z,67.79
2023-01-29T02:16:03.774Z,67.96
2023-01-29T02:18:30.203Z,68.22
2023-01-29T02:21:13.650Z,68.20
2023-01-29T02:24:12.936Z,68.58
2023-01-29T02:27:07.026Z,68.90
2023-01-29T02:29:43.369Z,68.96
2023-01-29T02:32:22.525Z,68.87
2023-01-29T02:35:28.570Z,69.00
2023-01-29T02:38:02.074Z,69.08
2023-01-29T02:40:39.968Z,69.39
2023-01-29T02:43:12.458Z,69.50
2023-01-29T02:45:42.425Z,69.70
2023-01-29T02:48:11.760Z,69.58
2023-01-29T02:50:40.529Z,69.78
2023-01-29T02:53:19.499Z,69.53
2023-01-29T02:55:53.079Z,69.94
2023-01-29T02:58:51.919Z,69.84
2023-01-29T03:01:25.308Z,69.90
2023-01-29T03:03:54.357Z,69.80
2023-01-29T03:06:33.657Z,70.06
2023-01-29T03:09:03.470Z,70.36
2023-01-29T03:11:35.320Z,70.37
2023-01-29T03:14:06.965Z,70.29
2023-01-29T03:16:41.299Z,70.43
2023-01-29T03:19:18.872Z,70.43
2023-01-29T03:21:54.987Z,70.08
2023-01-29T03:24:48.723Z,70.33
2023-01-29T03:27:35.498Z,70.37
2023-01-29T03:30:21.065Z,70.64
2023-01-29T03:32:53.971Z,70.32
2023-01-29T03:35:33.380Z,70.32
2023-01-29T03:38:01.154Z,70.41
2023-01-29T03:40:30.155Z,70.60
2023-01-29T03:43:10.314Z,70.16
2023-01-29T03:46:00.494Z,69.91
2023-01-29T03:48:39.531Z,69.71
2023-01-29T03:51:21.084Z,70.05
2023-01-29T03:54:04.864Z,69.08
2023-01-29T03:56:54.073Z,68.56
2023-01-29T03:59:32.854Z,68.79
2023-01-29T04:02:29.981Z,68.60
2023-01-29T04:05:05.350Z,68.54
2023-01-29T04:07:36.582Z,68.63
2023-01-29T04:10:09.391Z,68.93
2023-01-29T04:12:49.580Z,68.77
2023-01-29T04:15:17.415Z,69.02
2023-01-29T04:17:50.946Z,69.28
2023-01-29T04:20:27.959Z,69.09
2023-01-29T04:22:54.670Z,68.81
2023-01-29T04:25:28.972Z,69.10
2023-01-29T04:28:25.881Z,68.74
2023-01-29T04:31:12.168Z,68.30
2023-01-29T04:33:46.930Z,68.14
2023-01-29T04:36:32.976Z,68.06
2023-01-29T04:39:22.936Z,68.01
2023-01-29T04:42:07.389Z,68.36
2023-01-29T04:44:42.417Z,68.67
2023-01-29T04:47:22.405Z,68.71
2023-01-29T04:49:54.277Z,68.56
2023-01-29T04:52:24.392Z,69.17
2023-01-29T04:55:22.632Z,69.24
2023-01-29T04:58:08.308Z,68.96
2023-01-29T05:00:39.203Z,69.20
2023-01-29T05:03:06.128Z,69.42
2023-01-29T05:05:32.874Z,69.34
2023-01-29T05:07:59.546Z,69.45
2023-01-29T05:10:26.244Z,69.44
2023-01-29T05:12:58.658Z,69.57
2023-01-29T05:15:31.779Z,69.32
2023-01-29T05:18:01.808Z,69.26
2023-01-29T05:20:32.250Z,69.28
2023-01-29T05:22:59.048Z,68.86
2023-01-29T05:25:29.237Z,68.65
2023-01-29T05:28:11.783Z,68.53
2023-01-29T05:30:39.127Z,68.61
2023-01-29T05:33:12.788Z,68.45
2023-01-29T05:35:39.326Z,68.50
2023-01-29T05:38:05.851Z,68.35
2023-01-29T05:40:32.850Z,68.77
2023-01-29T05:42:59.323Z,68.32
2023-01-29T05:45:26.157Z,68.80
2023-01-29T05:47:58.414Z,68.64
2023-01-29T05:50:25.881Z,68.72
2023-01-29T05:53:00.204Z,68.36
2023-01-29T05:55:29.387Z,68.17
2023-01-29T05:57:56.128Z,68.26
2023-01-29T06:00:22.914Z,68.17
2023-01-29T06:02:49.965Z,67.88
2023-01-29T06:05:16.585Z,67.92
2023-01-29T06:07:45.238Z,67.86
2023-01-29T06:10:14.871Z,67.63
2023-01-29T06:12:43.005Z,67.90
2023-01-29T06:15:10.234Z,67.43
2023-01-29T06:17:36.764Z,67.78
2023-01-29T06:20:04.197Z,67.88
2023-01-29T06:22:30.756Z,67.78
2023-01-29T06:24:57.240Z,67.44
2023-01-29T06:27:23.681Z,67.69
2023-01-29T06:29:50.503Z,67.69
2023-01-29T06:32:16.960Z,68.03
2023-01-29T06:34:43.499Z,67.87
2023-01-29T06:37:10.034Z,68.15
2023-01-29T06:39:36.528Z,68.40
2023-01-29T06:42:03.265Z,68.35
2023-01-29T06:44:29.741Z,68.37
2023-01-29T06:46:56.232Z,68.56
2023-01-29T06:49:23.135Z,69.01
2023-01-29T06:51:49.629Z,68.73
2023-01-29T06:54:16.089Z,68.83
2023-01-29T06:56:42.706Z,69.05
2023-01-29T06:59:09.179Z,69.40
2023-01-29T07:01:41.062Z,69.74
2023-01-29T07:04:07.625Z,69.73
2023-01-29T07:06:34.277Z,69.79
2023-01-29T07:09:00.803Z,69.48
2023-01-29T07:11:27.267Z,69.54
2023-01-29T07:13:53.726Z,69.46
2023-01-29T07:16:20.236Z,69.56
2023-01-29T07:18:46.800Z,69.66
2023-01-29T07:21:13.356Z,70.00
2023-01-29T07:23:39.862Z,70.01
2023-01-29T07:26:07.095Z,69.80
2023-01-29T07:28:40.223Z,69.57
2023-01-29T07:31:07.579Z,69.68
2023-01-29T07:33:34.659Z,69.40
2023-01-29T07:36:01.153Z,69.77
2023-01-29T07:38:27.833Z,69.08
2023-01-29T07:40:54.244Z,68.68
2023-01-29T07:43:21.077Z,68.55
2023-01-29T07:45:47.535Z,68.44
2023-01-29T07:48:14.060Z,68.76
2023-01-29T07:50:40.896Z,68.85
2023-01-29T07:53:07.536Z,68.78
2023-01-29T07:55:33.976Z,68.90
2023-01-29T07:58:03.584Z,69.06
2023-01-29T08:00:31.232Z,68.97
2023-01-29T08:03:05.702Z,69.00
2023-01-29T08:05:32.424Z,68.75
2023-01-29T08:08:06.635Z,68.45
2023-01-29T08:10:34.815Z,68.28
2023-01-29T08:13:02.115Z,68.05
2023-01-29T08:15:28.717Z,67.73
2023-01-29T08:20:41.572Z,67.99
2023-01-29T08:23:13.815Z,67.91
2023-01-29T08:25:40.493Z,67.68
2023-01-29T08:28:07.182Z,67.85
2023-01-29T08:30:34.688Z,67.80
2023-01-29T08:33:01.616Z,67.81
2023-01-29T08:35:28.350Z,67.68
2023-01-29T08:37:59.693Z,67.49
2023-01-29T08:40:27.546Z,67.45
2023-01-29T08:43:02.520Z,67.73
2023-01-29T08:45:30.859Z,67.55
2023-01-29T08:47:57.294Z,67.42
2023-01-29T08:50:23.854Z,67.17
2023-01-29T08:52:50.388Z,67.28
2023-01-29T08:55:17.171Z,66.87
2023-01-29T08:57:43.720Z,67.12
2023-01-29T09:00:10.749Z,67.07
2023-01-29T09:02:37.600Z,67.00
2023-01-29T09:05:04.328Z,67.14
2023-01-29T09:07:31.121Z,67.04
2023-01-29T09:09:57.590Z,67.17
2023-01-29T09:12:23.980Z,67.03
2023-01-29T09:14:50.441Z,66.83
2023-01-29T09:17:16.850Z,66.76
2023-01-29T09:19:43.457Z,66.57
2023-01-29T09:22:11.814Z,66.42
2023-01-29T09:24:38.439Z,66.07
2023-01-29T09:27:05.987Z,65.86
2023-01-29T09:29:35.429Z,66.08
2023-01-29T09:32:03.561Z,65.85
2023-01-29T09:34:30.073Z,65.64
2023-01-29T09:36:56.812Z,65.61
2023-01-29T09:39:23.326Z,65.56
2023-01-29T09:42:22.693Z,65.66
2023-01-29T09:45:10.543Z,65.20
2023-01-29T09:47:37.164Z,65.17
2023-01-29T09:50:23.668Z,65.23
2023-01-29T09:53:04.618Z,65.18
2023-01-29T09:55:36.244Z,65.37
2023-01-29T09:58:06.616Z,65.00
2023-01-29T10:00:34.324Z,65.46
2023-01-29T10:03:15.768Z,65.28
2023-01-29T10:06:00.180Z,65.55
2023-01-29T10:08:33.252Z,65.69
2023-01-29T10:11:01.809Z,65.82
2023-01-29T10:13:52.705Z,65.92
2023-01-29T10:16:19.083Z,65.70
2023-01-29T10:19:04.636Z,66.07
2023-01-29T10:21:55.624Z,65.81
2023-01-29T10:24:38.627Z,65.33
2023-01-29T10:27:18.505Z,65.76
2023-01-29T10:29:47.276Z,66.01
2023-01-29T10:32:16.679Z,65.94
2023-01-29T10:34:49.500Z,65.67
2023-01-29T10:37:24.176Z,65.38
2023-01-29T10:39:50.749Z,65.67
2023-01-29T10:42:19.597Z,65.50
2023-01-29T10:45:00.921Z,65.23
2023-01-29T10:48:04.294Z,65.54
2023-01-29T10:51:06.396Z,64.99
2023-01-29T10:53:39.687Z,64.99
2023-01-29T10:56:51.446Z,64.87
2023-01-29T10:59:42.765Z,65.14
2023-01-29T11:02:16.164Z,65.70
2023-01-29T11:04:42.626Z,65.51
2023-01-29T11:07:09.494Z,65.43
2023-01-29T11:09:42.542Z,65.33
2023-01-29T11:12:14.313Z,65.30
2023-01-29T11:15:05.495Z,65.14
2023-01-29T11:17:32.189Z,65.31
2023-01-29T11:19:58.648Z,65.36
2023-01-29T11:22:26.949Z,65.15
2023-01-29T11:25:21.774Z,64.81
2023-01-29T11:28:00.878Z,64.85
2023-01-29T11:30:38.794Z,65.02
2023-01-29T11:33:05.175Z,65.04
2023-01-29T11:35:33.197Z,65.09
2023-01-29T11:38:28.574Z,64.82
2023-01-29T11:41:22.223Z,64.80
2023-01-29T11:43:48.630Z,64.25
2023-01-29T11:46:15.948Z,64.86
2023-01-29T11:48:50.026Z,64.53
2023-01-29T11:51:25.962Z,64.47
2023-01-29T11:53:57.171Z,64.72
2023-01-29T11:56:28.583Z,64.78
2023-01-29T11:58:56.029Z,64.92
2023-01-29T12:01:42.785Z,64.92
2023-01-29T12:04:25.458Z,64.99
2023-01-29T12:06:54.016Z,64.85
2023-01-29T12:09:28.016Z,65.20
2023-01-29T12:11:54.776Z,65.22
2023-01-29T12:14:26.913Z,65.03
2023-01-29T12:17:07.095Z,65.23
2023-01-29T12:19:42.794Z,65.29
2023-01-29T12:22:43.072Z,65.58
2023-01-29T12:25:23.770Z,65.53
2023-01-29T12:27:58.008Z,65.91
2023-01-29T12:30:38.792Z,65.85
2023-01-29T12:33:14.329Z,65.84
2023-01-29T12:35:59.709Z,65.74
2023-01-29T12:38:26.765Z,65.77
2023-01-29T12:40:55.189Z,65.36
2023-01-29T12:43:30.995Z,65.13
2023-01-29T12:45:59.316Z,65.00
2023-01-29T12:48:34.405Z,65.30
2023-01-29T12:51:10.652Z,65.29
2023-01-29T12:53:38.324Z,65.26
2023-01-29T12:56:38.987Z,65.56
2023-01-29T12:59:15.798Z,65.52
2023-01-29T13:01:53.822Z,65.51
2023-01-29T13:04:35.873Z,65.31
2023-01-29T13:07:18.850Z,65.44
2023-01-29T13:09:50.624Z,65.92
2023-01-29T13:12:18.338Z,65.66
2023-01-29T13:14:52.849Z,65.80
2023-01-29T13:17:56.354Z,65.24
2023-01-29T13:20:30.604Z,65.36
2023-01-29T13:23:01.695Z,65.33
2023-01-29T13:25:28.084Z,65.27
2023-01-29T13:27:55.253Z,64.96
2023-01-29T13:30:28.850Z,65.19
2023-01-29T13:33:08.332Z,65.13
2023-01-29T13:35:37.926Z,65.05
2023-01-29T13:38:05.267Z,64.82
2023-01-29T13:40:34.430Z,64.72
2023-01-29T13:43:01.636Z,64.90
2023-01-29T13:45:36.108Z,65.25
2023-01-29T13:48:31.896Z,65.43
2023-01-29T13:51:03.380Z,65.43
2023-01-29T13:53:41.615Z,65.64
2023-01-29T13:56:31.202Z,66.32
2023-01-29T13:58:58.840Z,66.45
2023-01-29T14:02:02.592Z,66.53
2023-01-29T14:04:31.416Z,66.67
2023-01-29T14:06:59.151Z,66.39
2023-01-29T14:09:35.384Z,66.50
2023-01-29T14:12:02.318Z,66.71
2023-01-29T14:14:47.530Z,66.45
2023-01-29T14:17:15.375Z,66.48
2023-01-29T14:19:52.597Z,66.17
2023-01-29T14:22:22.043Z,66.49
2023-01-29T14:24:49.593Z,66.68
2023-01-29T14:27:25.445Z,66.06
2023-01-29T14:29:57.474Z,65.72
2023-01-29T14:32:26.053Z,66.08
2023-01-29T14:34:55.390Z,65.69
2023-01-29T14:37:38.764Z,65.54
2023-01-29T14:40:10.892Z,65.67
2023-01-29T14:42:57.213Z,65.62
2023-01-29T14:45:38.297Z,65.47
2023-01-29T14:48:10.620Z,65.77
2023-01-29T14:50:36.941Z,65.78
2023-01-29T14:53:27.928Z,66.10
2023-01-29T14:55:58.247Z,66.32
2023-01-29T14:58:30.735Z,66.16
2023-01-29T15:00:58.365Z,65.89
2023-01-29T15:03:35.214Z,66.27
2023-01-29T15:06:02.359Z,66.06
2023-01-29T15:08:43.868Z,66.19
2023-01-29T15:11:35.733Z,66.04
2023-01-29T15:14:23.796Z,66.24
2023-01-29T15:17:00.973Z,66.23
2023-01-29T15:19:44.497Z,65.86
2023-01-29T15:22:12.562Z,65.95
2023-01-29T15:24:40.472Z,65.99
2023-01-29T15:27:11.573Z,66.16
2023-01-29T15:29:38.379Z,66.33
2023-01-29T15:32:05.837Z,66.30
2023-01-29T15:34:32.496Z,66.05
2023-01-29T15:36:59.583Z,66.56
2023-01-29T15:39:27.688Z,66.11
2023-01-29T15:42:23.421Z,66.58
2023-01-29T15:44:49.936Z,66.86
2023-01-29T15:47:16.422Z,66.75
2023-01-29T15:49:45.792Z,66.97
2023-01-29T15:52:35.096Z,66.77
2023-01-29T15:55:04.427Z,66.83
2023-01-29T15:57:34.213Z,66.93
2023-01-29T16:00:01.578Z,67.13
2023-01-29T16:02:39.559Z,67.16
2023-01-29T16:05:11.518Z,67.57
2023-01-29T16:07:38.103Z,67.60
2023-01-29T16:10:05.428Z,67.53
2023-01-29T16:12:33.191Z,67.98
2023-01-29T16:15:01.325Z,68.23
2023-01-29T16:17:35.464Z,68.08
2023-01-29T16:20:05.941Z,68.45
2023-01-29T16:22:34.897Z,68.72
2023-01-29T16:25:03.897Z,68.82
2023-01-29T16:27:31.356Z,68.64
2023-01-29T16:29:57.892Z,68.69
2023-01-29T16:32:24.542Z,69.12
2023-01-29T16:34:56.508Z,69.27
2023-01-29T16:37:32.126Z,69.52
2023-01-29T16:39:58.873Z,69.26
2023-01-29T16:42:28.415Z,69.72
2023-01-29T16:45:01.737Z,69.98
2023-01-29T16:47:43.326Z,69.63
2023-01-29T16:50:27.564Z,70.13
2023-01-29T16:53:18.360Z,70.22
2023-01-29T16:55:46.857Z,70.13
2023-01-29T16:58:16.820Z,70.59
2023-01-29T17:00:45.517Z,70.78
2023-01-29T17:03:13.388Z,71.14
2023-01-29T17:05:39.952Z,71.03
2023-01-29T17:08:07.328Z,71.52
2023-01-29T17:10:34.047Z,71.48
2023-01-29T17:13:06.269Z,71.78
2023-01-29T17:15:44.911Z,72.12
2023-01-29T17:18:18.545Z,72.07
2023-01-29T17:20:45.021Z,72.44
2023-01-29T17:23:11.470Z,72.82
2023-01-29T17:25:38.370Z,72.50
2023-01-29T17:28:04.979Z,72.63
2023-01-29T17:30:37.383Z,72.69
2023-01-29T17:33:15.512Z,72.85
2023-01-29T17:35:43.509Z,72.95
2023-01-29T17:38:24.261Z,73.19
2023-01-29T17:41:22.342Z,72.89
2023-01-29T17:43:48.799Z,73.05
2023-01-29T17:46:17.577Z,72.93
2023-01-29T17:48:44.582Z,73.04
2023-01-29T17:51:14.306Z,72.95
2023-01-29T17:53:45.963Z,72.93
2023-01-29T17:56:15.825Z,72.73
2023-01-29T17:58:42.580Z,72.64
2023-01-29T18:01:09.011Z,72.68
2023-01-29T18:03:35.558Z,72.75
2023-01-29T18:06:02.012Z,72.96
2023-01-29T18:08:31.043Z,72.83
2023-01-29T18:10:57.480Z,72.82
2023-01-29T18:13:24.074Z,72.80
2023-01-29T18:15:51.620Z,73.00
2023-01-29T18:18:22.749Z,72.94
2023-01-29T18:20:49.600Z,73.21
2023-01-29T18:23:16.462Z,73.34
2023-01-29T18:25:45.795Z,72.87
2023-01-29T18:28:17.152Z,72.76
2023-01-29T18:30:46.794Z,73.16
2023-01-29T18:33:14.080Z,72.89
2023-01-29T18:35:40.645Z,73.06
2023-01-29T18:38:07.446Z,72.71
2023-01-29T18:40:34.210Z,73.00
2023-01-29T18:43:00.910Z,73.12
2023-01-29T18:45:28.225Z,72.77
2023-01-29T18:47:55.021Z,73.16
2023-01-29T18:50:23.634Z,73.04
2023-01-29T18:52:50.186Z,72.69
2023-01-29T18:55:17.142Z,73.00
2023-01-29T18:58:33.445Z,72.96
2023-01-29T19:00:31.058Z,73.11
2023-01-29T19:02:57.511Z,72.92
2023-01-29T19:05:25.480Z,72.76
2023-01-29T19:07:52.379Z,73.24
2023-01-29T19:10:19.085Z,73.30
2023-01-29T19:12:45.584Z,73.19
2023-01-29T19:15:12.141Z,73.25
2023-01-29T19:17:39.157Z,73.25
2023-01-29T19:20:06.079Z,73.01
2023-01-29T19:22:32.543Z,73.29
2023-01-29T19:24:59.075Z,73.35
2023-01-29T19:27:30.054Z,73.24
2023-01-29T19:29:58.028Z,73.58
2023-01-29T19:32:24.488Z,73.68
2023-01-29T19:34:51.099Z,73.56
2023-01-29T19:37:17.516Z,74.07
2023-01-29T19:39:43.980Z,73.70
2023-01-29T19:42:10.471Z,73.86
2023-01-29T19:44:38.893Z,74.16
2023-01-29T19:47:05.932Z,73.91
2023-01-29T19:49:34.017Z,74.27
2023-01-29T19:52:01.299Z,74.19
2023-01-29T19:54:29.387Z,74.20
2023-01-29T19:56:56.262Z,74.69
2023-01-29T19:59:22.785Z,74.87
2023-01-29T20:01:49.324Z,74.68
2023-01-29T20:04:15.819Z,74.93
2023-01-29T20:06:42.259Z,74.76
2023-01-29T20:09:08.673Z,75.00
2023-01-29T20:11:35.107Z,74.99
2023-01-29T20:14:01.648Z,75.59
2023-01-29T20:16:28.226Z,75.68
2023-01-29T20:18:54.766Z,75.61
2023-01-29T20:21:41.788Z,75.58
2023-01-29T20:24:12.353Z,75.43
2023-01-29T20:26:38.972Z,75.64
2023-01-29T20:29:06.302Z,75.61
2023-01-29T20:31:32.823Z,76.01
2023-01-29T20:33:59.340Z,75.81
2023-01-29T20:36:25.838Z,75.85
2023-01-29T20:38:52.263Z,76.10
2023-01-29T20:41:19.769Z,76.21
2023-01-29T20:43:46.993Z,76.16
2023-01-29T20:46:14.016Z,76.08
2023-01-29T20:48:41.986Z,76.25
2023-01-29T20:51:13.624Z,76.58
2023-01-29T20:53:41.088Z,76.47
2023-01-29T20:56:08.055Z,76.28
2023-01-29T20:58:34.844Z,76.55
2023-01-29T21:01:01.358Z,76.43
2023-01-29T21:03:27.875Z,76.58
2023-01-29T21:05:54.416Z,76.07
2023-01-29T21:08:20.948Z,76.66
2023-01-29T21:10:49.478Z,76.68
2023-01-29T21:13:16.030Z,76.82
2023-01-29T21:15:42.885Z,77.01
2023-01-29T21:18:09.435Z,77.01
2023-01-29T21:20:36.300Z,76.70
2023-01-29T21:23:05.327Z,76.70
2023-01-29T21:25:33.438Z,76.61
2023-01-29T21:27:59.943Z,76.75
2023-01-29T21:30:27.090Z,77.02
2023-01-29T21:32:53.599Z,76.74
2023-01-29T21:35:20.138Z,77.06
2023-01-29T21:37:46.597Z,77.23
2023-01-29T21:40:13.151Z,76.98
2023-01-29T21:42:58.240Z,77.20
2023-01-29T21:45:24.848Z,76.84
2023-01-29T21:47:51.420Z,76.87
2023-01-29T21:50:18.297Z,76.52
2023-01-29T21:52:45.089Z,76.38
2023-01-29T21:55:11.626Z,76.20
2023-01-29T21:57:38.176Z,76.29
2023-01-29T22:00:05.248Z,75.72
2023-01-29T22:02:32.191Z,75.78
2023-01-29T22:05:16.486Z,75.83
2023-01-29T22:07:44.605Z,75.67
2023-01-29T22:10:12.254Z,75.75
2023-01-29T22:12:39.368Z,75.66
2023-01-29T22:15:07.137Z,75.70
2023-01-29T22:17:33.963Z,75.38
2023-01-29T22:20:00.780Z,75.21
2023-01-29T22:22:27.406Z,75.35
2023-01-29T22:24:55.078Z,75.51
2023-01-29T22:27:21.586Z,75.66
2023-01-29T22:29:48.184Z,75.76
2023-01-29T22:32:14.778Z,75.75
2023-01-29T22:34:41.332Z,75.56
2023-01-29T22:37:08.608Z,75.59
2023-01-29T22:39:35.062Z,75.27
2023-01-29T22:42:01.626Z,75.63
2023-01-29T22:44:28.168Z,75.74
2023-01-29T22:46:54.854Z,75.45
2023-01-29T22:49:21.317Z,75.35
2023-01-29T22:51:48.152Z,75.36
2023-01-29T22:54:15.512Z,75.33
2023-01-29T22:56:42.089Z,75.25
2023-01-29T22:59:09.508Z,75.12
2023-01-29T23:01:35.983Z,75.23
2023-01-29T23:04:02.449Z,75.16
2023-01-29T23:06:28.973Z,75.23
2023-01-29T23:08:55.491Z,75.25
2023-01-29T23:11:23.523Z,75.37
2023-01-29T23:13:53.959Z,75.77
2023-01-29T23:16:23.013Z,75.16
2023-01-29T23:18:51.898Z,75.73
2023-01-29T23:21:19.294Z,75.49
2023-01-29T23:23:45.777Z,75.71
2023-01-29T23:26:31.251Z,75.92
2023-01-29T23:28:57.959Z,76.00
2023-01-29T23:31:24.589Z,76.02
2023-01-29T23:33:51.221Z,76.11
2023-01-29T23:36:17.861Z,76.02
2023-01-29T23:38:44.401Z,76.21
2023-01-29T23:41:10.901Z,76.05
2023-01-29T23:43:37.743Z,76.35
2023-01-29T23:46:04.240Z,76.33
2023-01-29T23:48:30.799Z,76.51
2023-01-29T23:50:57.234Z,76.72
2023-01-29T23:53:23.770Z,77.17
2023-01-29T23:56:01.655Z,77.21
2023-01-29T23:58:30.890Z,76.97
